Time;durP1;ratioP1;P1;durP2;ratioP2;P2;SDS_P1;SDS_P2;PMS_P1;PMS_P2;Temp;Humidity;BMP_temperature;BMP_pressure;BME280_temperature;BME280_humidity;BME280_pressure;Samples;Min_cycle;Max_cycle;Signal;HPM_P1;HPM_P2
2021/10/28 00:13:59;;;;;;;8.03;5.77;;;;;;;5.16;100.00;101587.16;5040292;28;20215;-72
2021/10/28 00:16:28;;;;;;;10.13;6.27;;;;;;;5.12;100.00;101581.94;5042025;28;20210;-71
2021/10/28 00:19:01;;;;;;;9.00;6.23;;;;;;;5.12;100.00;101588.84;5038408;28;20215;-72
2021/10/28 00:21:29;;;;;;;10.93;6.17;;;;;;;5.11;100.00;101585.38;5044615;28;20231;-72
2021/10/28 00:23:59;;;;;;;10.23;6.30;;;;;;;5.06;100.00;101589.63;5042600;28;20215;-71
2021/10/28 00:26:26;;;;;;;9.57;6.07;;;;;;;5.02;100.00;101592.16;5045554;28;20293;-71
2021/10/28 00:28:57;;;;;;;9.57;5.83;;;;;;;4.97;100.00;101586.94;5048774;28;20204;-72
2021/10/28 00:31:24;;;;;;;10.13;6.17;;;;;;;4.96;100.00;101587.81;5040464;28;20303;-72
2021/10/28 00:33:50;;;;;;;9.00;6.17;;;;;;;4.92;100.00;101594.66;5035490;28;20553;-72
2021/10/28 00:36:18;;;;;;;10.13;6.10;;;;;;;4.86;100.00;101594.56;5036444;28;20196;-75
2021/10/28 00:38:45;;;;;;;9.33;5.63;;;;;;;4.85;100.00;101590.22;5035934;28;20404;-72
2021/10/28 00:41:12;;;;;;;7.67;5.63;;;;;;;4.84;100.00;101587.66;5038588;28;20223;-71
2021/10/28 00:43:45;;;;;;;10.23;6.20;;;;;;;4.79;100.00;101585.00;5039911;28;20540;-71
2021/10/28 00:46:12;;;;;;;11.80;6.43;;;;;;;4.80;100.00;101583.25;5038829;28;20208;-72
2021/10/28 00:48:38;;;;;;;12.10;7.00;;;;;;;4.76;100.00;101579.78;5043812;28;20219;-72
2021/10/28 00:51:06;;;;;;;15.17;6.93;;;;;;;4.76;100.00;101584.09;5041741;28;20220;-73
2021/10/28 00:53:35;;;;;;;12.83;7.27;;;;;;;4.80;100.00;101576.41;5045424;28;20279;-72
2021/10/28 00:56:03;;;;;;;18.90;9.03;;;;;;;4.80;100.00;101571.25;5039902;28;20191;-72
2021/10/28 00:58:32;;;;;;;14.60;7.70;;;;;;;4.76;100.00;101571.16;5038464;28;20250;-74
2021/10/28 01:00:59;;;;;;;13.93;7.80;;;;;;;4.72;100.00;101565.09;5038912;28;20220;-74
2021/10/28 01:03:26;;;;;;;14.53;8.03;;;;;;;4.70;100.00;101562.50;5039473;28;20208;-72
2021/10/28 01:05:52;;;;;;;15.20;8.70;;;;;;;4.68;100.00;101559.03;5044092;28;20197;-74
2021/10/28 01:08:19;;;;;;;17.63;9.17;;;;;;;4.66;100.00;101562.41;5042392;28;20905;-72
2021/10/28 01:10:48;;;;;;;16.63;8.93;;;;;;;4.63;100.00;101563.25;5039869;28;20197;-72
2021/10/28 01:13:15;;;;;;;16.10;9.33;;;;;;;4.65;100.00;101558.13;5041344;28;20566;-73
2021/10/28 01:15:41;;;;;;;20.67;10.23;;;;;;;4.69;100.00;101560.75;5043893;28;20207;-72
2021/10/28 01:18:09;;;;;;;21.50;10.17;;;;;;;4.71;100.00;101558.19;5039506;28;20207;-72
2021/10/28 01:20:38;;;;;;;23.83;11.53;;;;;;;4.74;100.00;101559.09;5040248;28;20550;-72
2021/10/28 01:23:04;;;;;;;24.63;11.53;;;;;;;4.76;100.00;101561.69;5034082;28;20251;-72
2021/10/28 01:25:31;;;;;;;24.47;10.93;;;;;;;4.75;100.00;101562.56;5035375;28;20225;-72
2021/10/28 01:27:57;;;;;;;25.03;11.03;;;;;;;4.73;100.00;101559.94;5043007;28;20208;-73
2021/10/28 01:30:24;;;;;;;25.43;12.27;;;;;;;4.70;100.00;101567.66;5037326;28;20222;-72
2021/10/28 01:32:50;;;;;;;25.70;12.73;;;;;;;4.68;100.00;101566.78;5043609;28;20223;-72
2021/10/28 01:35:17;;;;;;;28.23;12.27;;;;;;;4.67;100.00;101553.81;5040846;28;20203;-73
2021/10/28 01:37:45;;;;;;;28.87;12.40;;;;;;;4.65;100.00;101558.97;5038718;28;20202;-72
2021/10/28 01:40:12;;;;;;;27.37;13.23;;;;;;;4.63;100.00;101549.47;5040311;28;20971;-72
2021/10/28 01:42:39;;;;;;;28.07;12.97;;;;;;;4.63;100.00;101552.91;5035175;28;20753;-73
2021/10/28 01:45:06;;;;;;;24.03;13.03;;;;;;;4.62;100.00;101547.72;5047991;28;20253;-72
2021/10/28 01:47:33;;;;;;;30.93;13.30;;;;;;;4.58;100.00;101551.13;5040238;28;20199;-73
2021/10/28 01:49:59;;;;;;;30.27;13.33;;;;;;;4.58;100.00;101556.28;5033274;28;20247;-72
2021/10/28 01:52:25;;;;;;;25.83;13.47;;;;;;;4.53;100.00;101554.50;5038962;28;20219;-74
2021/10/28 01:54:53;;;;;;;30.27;13.37;;;;;;;4.51;100.00;101550.19;5049132;28;20196;-72
2021/10/28 01:57:22;;;;;;;27.37;13.77;;;;;;;4.47;100.00;101557.00;5036132;28;20204;-74
2021/10/28 01:59:50;;;;;;;31.30;13.87;;;;;;;4.47;100.00;101549.25;5045874;28;20198;-73
2021/10/28 02:02:16;;;;;;;27.23;12.83;;;;;;;4.39;100.00;101548.28;5034736;28;20732;-72
2021/10/28 02:04:45;;;;;;;28.73;13.17;;;;;;;4.37;100.00;101544.81;5039215;28;20207;-72
2021/10/28 02:07:13;;;;;;;30.80;12.87;;;;;;;4.30;100.00;101551.59;5034550;28;20208;-72
2021/10/28 02:09:40;;;;;;;28.67;13.33;;;;;;;4.28;100.00;101549.84;5033944;28;20287;-73
2021/10/28 02:12:09;;;;;;;24.83;12.70;;;;;;;4.26;100.00;101552.41;5035696;28;20215;-72
2021/10/28 02:14:35;;;;;;;26.67;12.00;;;;;;;4.21;100.00;101546.31;5033697;28;20208;-72
2021/10/28 02:17:02;;;;;;;19.70;10.90;;;;;;;4.13;100.00;101548.78;5034334;28;20681;-72
2021/10/28 02:19:28;;;;;;;25.03;11.37;;;;;;;4.13;100.00;101553.06;5036007;28;20204;-72
2021/10/28 02:21:55;;;;;;;22.97;12.30;;;;;;;4.11;100.00;101547.00;5038733;28;20227;-73
2021/10/28 02:24:21;;;;;;;22.97;10.90;;;;;;;4.07;100.00;101553.84;5038334;28;20212;-72
2021/10/28 02:26:50;;;;;;;23.77;10.83;;;;;;;4.09;100.00;101551.28;5039562;28;20229;-72
2021/10/28 02:29:17;;;;;;;20.80;11.30;;;;;;;4.02;100.00;101554.63;5039601;28;20223;-72
2021/10/28 02:31:46;;;;;;;25.67;11.60;;;;;;;4.09;100.00;101552.16;5036701;28;20233;-72
2021/10/28 02:34:13;;;;;;;21.43;11.50;;;;;;;4.08;100.00;101552.13;5029415;28;20585;-72
2021/10/28 02:36:39;;;;;;;26.03;13.43;;;;;;;4.16;100.00;101548.81;5032355;28;20214;-72
2021/10/28 02:39:06;;;;;;;25.87;11.87;;;;;;;4.09;100.00;101559.88;5035863;28;20200;-72
2021/10/28 02:41:32;;;;;;;28.03;12.63;;;;;;;4.05;100.00;101554.69;5038809;28;20218;-72
2021/10/28 02:44:00;;;;;;;24.20;12.07;;;;;;;3.98;100.00;101554.56;5037300;28;20690;-72
2021/10/28 02:46:29;;;;;;;19.70;10.60;;;;;;;3.94;100.00;101554.47;5038152;28;20231;-75
2021/10/28 02:48:55;;;;;;;23.03;11.40;;;;;;;3.80;100.00;101559.44;5039813;28;20207;-72
2021/10/28 02:51:22;;;;;;;20.30;10.47;;;;;;;3.73;100.00;101555.88;5045047;28;20779;-72
2021/10/28 02:53:48;;;;;;;22.10;11.17;;;;;;;3.70;100.00;101558.41;5037627;28;20561;-73
2021/10/28 02:56:15;;;;;;;22.53;10.67;;;;;;;3.62;100.00;101559.13;5032686;28;20287;-72
2021/10/28 02:58:42;;;;;;;23.07;11.07;;;;;;;3.58;100.00;101565.94;5040934;28;20199;-72
2021/10/28 03:01:08;;;;;;;23.80;11.80;;;;;;;3.62;100.00;101556.53;5040311;28;20596;-74
2021/10/28 03:03:38;;;;;;;22.13;11.30;;;;;;;3.68;100.00;101554.94;5038290;28;20221;-72
2021/10/28 03:06:04;;;;;;;23.93;12.53;;;;;;;3.57;100.00;101553.88;5039286;28;20200;-73
2021/10/28 03:08:32;;;;;;;21.27;11.50;;;;;;;3.55;100.00;101548.72;5045356;28;20206;-72
2021/10/28 03:10:59;;;;;;;23.00;11.67;;;;;;;3.46;100.00;101553.69;5037770;28;20212;-72
2021/10/28 03:13:25;;;;;;;19.43;10.67;;;;;;;3.53;100.00;101554.66;5043215;28;20624;-72
2021/10/28 03:15:53;;;;;;;22.80;12.13;;;;;;;3.55;100.00;101550.41;5037852;28;20222;-73
2021/10/28 03:26:33;;;;;;;21.50;10.80;;;;;;;3.33;100.00;101544.00;5031763;28;20729;-72
2021/10/28 03:28:59;;;;;;;23.47;11.47;;;;;;;3.31;100.00;101546.56;5034365;28;20274;-73
2021/10/28 03:31:25;;;;;;;23.27;12.27;;;;;;;3.23;100.00;101555.84;5047785;28;20253;-72
2021/10/28 03:33:52;;;;;;;26.23;12.27;;;;;;;3.23;100.00;101561.00;5038046;28;20200;-73
2021/10/28 03:36:32;;;;;;;22.33;11.53;;;;;;;3.21;100.00;101558.38;5046476;28;20204;-72
2021/10/28 03:39:09;;;;;;;25.07;11.43;;;;;;;3.11;100.00;101556.47;5042429;28;20294;-73
2021/10/28 03:41:55;;;;;;;21.30;10.87;;;;;;;3.09;100.00;101555.56;5035943;28;20789;-72
2021/10/28 03:45:11;;;;;;;22.33;11.43;;;;;;;3.04;100.00;101559.75;5043532;28;20310;-71
2021/10/28 03:51:08;;;;;;;23.47;12.03;;;;;;;2.95;100.00;101551.84;5040225;28;20369;-72
2021/10/28 03:59:37;;;;;;;28.10;12.43;;;;;;;2.94;100.00;101550.13;5010717;28;20204;-72
2021/10/28 04:08:06;;;;;;;30.80;14.97;;;;;;;2.93;100.00;101551.81;5040694;28;20204;-72
2021/10/28 04:29:42;;;;;;;26.43;13.30;;;;;;;2.59;100.00;101550.28;5038306;28;21203;-74
2021/10/28 04:32:09;;;;;;;21.13;11.87;;;;;;;2.54;100.00;101549.31;5038059;28;20703;-72
2021/10/28 04:34:35;;;;;;;29.00;14.27;;;;;;;2.49;100.00;101546.63;5043942;28;20695;-72
2021/10/28 04:37:02;;;;;;;30.83;12.47;;;;;;;2.57;100.00;101546.78;5045748;28;20662;-72
2021/10/28 04:39:28;;;;;;;26.77;13.43;;;;;;;2.59;100.00;101543.41;5034998;28;20828;-72
2021/10/28 04:41:55;;;;;;;27.10;11.73;;;;;;;2.50;100.00;101544.91;5043585;28;20314;-72
2021/10/28 04:44:22;;;;;;;29.50;14.03;;;;;;;2.45;100.00;101544.81;5036754;28;20219;-72
2021/10/28 04:46:49;;;;;;;28.23;14.47;;;;;;;2.43;100.00;101541.34;5039241;28;20311;-71
2021/10/28 04:49:15;;;;;;;29.30;14.37;;;;;;;2.44;100.00;101538.78;5044669;28;20286;-73
2021/10/28 04:51:42;;;;;;;31.77;15.13;;;;;;;2.40;100.00;101541.28;5037788;28;20220;-72
2021/10/28 04:54:09;;;;;;;31.97;14.77;;;;;;;2.43;100.00;101536.19;5032675;28;20202;-71
2021/10/28 04:56:35;;;;;;;32.80;15.17;;;;;;;2.40;100.00;101542.13;5037587;28;20661;-71
2021/10/28 04:59:01;;;;;;;31.03;15.07;;;;;;;2.44;100.00;101538.78;5040465;28;20207;-74
2021/10/28 05:01:29;;;;;;;32.57;15.70;;;;;;;2.35;100.00;101540.31;5039329;28;20237;-72
2021/10/28 05:03:56;;;;;;;32.50;14.33;;;;;;;2.39;100.00;101536.94;5034717;28;20223;-71
2021/10/28 05:06:22;;;;;;;30.40;14.03;;;;;;;2.45;100.00;101532.81;5039020;28;20211;-74
2021/10/28 05:08:49;;;;;;;31.67;14.90;;;;;;;2.32;100.00;101532.50;5044897;28;20282;-72
2021/10/28 05:11:17;;;;;;;30.77;15.10;;;;;;;2.20;100.00;101536.56;5037331;28;20228;-74
2021/10/28 05:13:44;;;;;;;37.03;16.90;;;;;;;2.24;100.00;101532.34;5029022;28;20204;-72
2021/10/28 05:16:10;;;;;;;31.50;15.97;;;;;;;2.30;100.00;101531.59;5041604;28;20291;-72
2021/10/28 05:18:41;;;;;;;38.60;15.43;;;;;;;2.31;100.00;101526.50;5036782;28;20235;-72
2021/10/28 05:21:08;;;;;;;32.30;14.97;;;;;;;2.25;100.00;101534.97;5039017;28;20222;-71
2021/10/28 05:23:34;;;;;;;28.60;14.83;;;;;;;2.30;100.00;101539.31;5035032;28;20220;-73
2021/10/28 05:26:01;;;;;;;30.80;14.37;;;;;;;2.28;100.00;101540.16;5038904;28;20210;-72
2021/10/28 05:28:27;;;;;;;32.93;15.67;;;;;;;2.24;100.00;101538.34;5044947;28;20277;-74
2021/10/28 05:30:53;;;;;;;35.37;15.53;;;;;;;2.22;100.00;101534.88;5037007;28;20212;-72
2021/10/28 05:33:20;;;;;;;35.13;16.27;;;;;;;2.22;100.00;101528.88;5048444;28;20222;-72
2021/10/28 05:35:47;;;;;;;31.53;15.50;;;;;;;2.24;100.00;101533.19;5034691;28;20249;-71
2021/10/28 05:38:14;;;;;;;34.97;15.87;;;;;;;2.26;100.00;101538.38;5051241;28;20198;-72
2021/10/28 05:40:41;;;;;;;41.33;17.03;;;;;;;2.16;100.00;101539.88;5032466;28;20285;-72
2021/10/28 05:43:09;;;;;;;40.47;17.40;;;;;;;2.14;100.00;101541.53;5036866;28;20198;-72
2021/10/28 05:45:36;;;;;;;39.20;16.67;;;;;;;2.09;100.00;101545.72;5031226;28;20211;-72
2021/10/28 05:48:02;;;;;;;42.00;16.97;;;;;;;2.06;100.00;101543.94;5043292;28;20230;-74
2021/10/28 05:50:30;;;;;;;36.20;16.30;;;;;;;2.18;100.00;101539.91;5040509;28;20318;-72
2021/10/28 05:52:59;;;;;;;37.37;17.03;;;;;;;2.07;100.00;101537.09;5035963;28;20688;-73
2021/10/28 05:55:26;;;;;;;38.73;16.80;;;;;;;2.11;100.00;101535.47;5034744;28;20202;-71
2021/10/28 05:57:54;;;;;;;38.57;17.60;;;;;;;2.12;100.00;101535.50;5039298;28;20208;-73
2021/10/28 06:00:21;;;;;;;39.20;17.70;;;;;;;2.10;100.00;101536.31;5039879;28;20203;-72
2021/10/28 06:02:48;;;;;;;41.13;17.97;;;;;;;2.15;100.00;101539.88;5044544;28;20285;-72
2021/10/28 06:05:14;;;;;;;39.47;17.37;;;;;;;2.11;100.00;101540.59;5041261;28;20219;-72
2021/10/28 06:07:42;;;;;;;39.23;17.50;;;;;;;2.21;100.00;101543.41;5039313;28;20198;-72
2021/10/28 06:10:12;;;;;;;34.43;17.10;;;;;;;2.12;100.00;101542.34;5036206;28;20213;-74
2021/10/28 06:12:40;;;;;;;37.87;17.70;;;;;;;2.31;100.00;101544.50;5039788;28;20778;-71
2021/10/28 06:15:10;;;;;;;38.17;16.80;;;;;;;2.31;100.00;101546.22;5040825;28;20231;-73
2021/10/28 06:17:43;;;;;;;44.57;18.10;;;;;;;2.27;100.00;101551.28;5034270;28;20209;-72
2021/10/28 06:20:11;;;;;;;42.13;18.37;;;;;;;2.22;100.00;101545.16;5043011;28;20207;-72
2021/10/28 06:22:37;;;;;;;40.33;18.27;;;;;;;2.20;100.00;101554.56;5035891;28;20430;-73
2021/10/28 06:25:04;;;;;;;40.40;18.90;;;;;;;2.16;100.00;101550.16;5051679;28;20690;-73
2021/10/28 06:27:32;;;;;;;46.33;19.43;;;;;;;2.20;100.00;101545.94;5047273;28;20277;-72
2021/10/28 06:29:58;;;;;;;39.70;18.83;;;;;;;2.30;100.00;101547.91;5043306;28;20198;-71
2021/10/28 06:32:25;;;;;;;54.47;20.40;;;;;;;2.36;100.00;101542.06;5037354;28;20231;-71
2021/10/28 06:34:51;;;;;;;51.10;20.60;;;;;;;2.30;100.00;101544.47;5042596;28;20248;-73
2021/10/28 06:37:18;;;;;;;45.87;19.40;;;;;;;2.20;100.00;101551.09;5035684;28;20642;-71
2021/10/28 06:39:45;;;;;;;44.10;19.77;;;;;;;2.30;100.00;101552.19;5035245;28;20210;-71
2021/10/28 06:42:13;;;;;;;44.27;18.40;;;;;;;2.34;100.00;101552.31;5052055;28;20489;-71
2021/10/28 06:44:44;;;;;;;48.00;19.40;;;;;;;2.34;100.00;101557.47;5048313;28;20207;-71
2021/10/28 06:47:10;;;;;;;49.80;20.50;;;;;;;2.41;100.00;101559.34;5034003;28;20203;-71
2021/10/28 06:49:39;;;;;;;53.50;22.03;;;;;;;2.56;100.00;101555.34;5042939;28;20215;-71
2021/10/28 06:52:09;;;;;;;51.50;21.40;;;;;;;2.57;100.00;101559.66;5044524;28;20311;-72
2021/10/28 06:54:36;;;;;;;52.10;20.90;;;;;;;2.64;100.00;101556.41;5036070;28;20199;-70
2021/10/28 06:57:32;;;;;;;54.53;22.23;;;;;;;2.64;100.00;101559.81;5040357;28;20294;-70
2021/10/28 07:02:45;;;;;;;226.20;84.83;;;;;;;2.83;100.00;101558.50;5039291;28;20227;-71
2021/10/28 07:05:12;;;;;;;641.70;274.33;;;;;;;2.89;100.00;101546.59;5033450;28;20226;-72
2021/10/28 07:07:39;;;;;;;211.07;79.33;;;;;;;2.97;100.00;101550.19;5044426;28;20558;-71
2021/10/28 07:10:09;;;;;;;119.63;40.80;;;;;;;3.12;100.00;101553.06;5044010;28;20241;-71
2021/10/28 07:12:45;;;;;;;218.03;98.63;;;;;;;3.22;100.00;101547.25;5035413;28;20919;-71
2021/10/28 07:15:16;;;;;;;308.07;170.87;;;;;;;3.33;100.00;101544.00;5039610;28;20212;-71
2021/10/28 07:17:56;;;;;;;168.53;75.67;;;;;;;3.50;100.00;101546.88;5035995;28;20690;-71
2021/10/28 07:20:45;;;;;;;131.63;47.83;;;;;;;3.59;100.00;101540.16;5038053;28;20207;-72
2021/10/28 07:23:31;;;;;;;117.23;39.57;;;;;;;3.78;100.00;101540.47;5037684;28;20750;-71
2021/10/28 07:31:53;;;;;;;129.83;36.47;;;;;;;4.12;100.00;101549.63;5047545;28;20720;-72
2021/10/28 07:34:29;;;;;;;125.03;37.30;;;;;;;4.26;100.00;101555.00;5043269;28;20203;-71
2021/10/28 08:15:30;;;;;;;180.87;71.33;;;;;;;5.86;100.00;101515.41;5040162;28;20199;-73
2021/10/28 08:20:53;;;;;;;168.13;48.83;;;;;;;6.08;100.00;101507.81;5040277;28;20258;-72
2021/10/28 08:23:31;;;;;;;160.27;48.63;;;;;;;6.18;100.00;101504.44;5030707;28;20203;-72
2021/10/28 08:28:49;;;;;;;155.97;47.77;;;;;;;6.42;100.00;101501.13;5029854;28;20196;-72
2021/10/28 08:31:18;;;;;;;158.43;45.50;;;;;;;6.56;100.00;101493.41;5041694;28;20207;-72
2021/10/28 08:33:45;;;;;;;148.73;44.60;;;;;;;6.69;100.00;101501.22;5042664;28;20215;-72
2021/10/28 08:36:20;;;;;;;169.40;48.70;;;;;;;6.82;100.00;101495.22;5040238;28;20208;-72
2021/10/28 08:38:46;;;;;;;154.17;46.97;;;;;;;6.98;100.00;101498.72;5039873;28;20747;-73
2021/10/28 08:41:13;;;;;;;163.83;48.77;;;;;;;7.08;100.00;101502.22;5036996;28;20216;-72
2021/10/28 08:43:43;;;;;;;152.00;46.70;;;;;;;7.19;100.00;101497.91;5039949;28;20199;-72
2021/10/28 08:46:11;;;;;;;161.30;49.90;;;;;;;7.31;100.00;101495.31;5038105;28;20720;-72
2021/10/28 08:48:40;;;;;;;160.97;49.10;;;;;;;7.49;100.00;101493.63;5037257;28;21058;-72
2021/10/28 08:51:10;;;;;;;170.60;50.83;;;;;;;7.60;100.00;101484.13;5034893;28;20311;-74
2021/10/28 08:54:06;;;;;;;174.10;50.77;;;;;;;7.72;100.00;101481.50;5043485;28;20769;-73
2021/10/28 08:56:46;;;;;;;168.43;50.43;;;;;;;7.87;100.00;101482.34;5038479;28;20210;-72
2021/10/28 08:59:35;;;;;;;164.93;51.40;;;;;;;7.96;100.00;101484.94;5035963;28;20651;-74
2021/10/28 09:24:33;;;;;;;203.20;72.40;;;;;;;9.20;100.00;101456.69;5031216;28;20701;-73
2021/10/28 09:27:05;;;;;;;173.97;59.63;;;;;;;9.28;100.00;101460.97;5035050;28;20668;-72
2021/10/28 09:29:38;;;;;;;157.67;51.63;;;;;;;9.44;100.00;101455.66;5032347;28;20197;-73
2021/10/28 09:32:16;;;;;;;165.77;67.57;;;;;;;9.54;100.00;101462.50;5037391;28;20222;-73
2021/10/28 09:35:01;;;;;;;143.43;51.07;;;;;;;9.66;100.00;101448.53;5035537;28;20202;-72
2021/10/28 09:46:20;;;;;;;86.07;38.83;;;;;;;10.14;100.00;101448.03;5032841;28;20368;-74
2021/10/28 09:51:41;;;;;;;70.60;34.37;;;;;;;10.56;100.00;101453.66;5037423;28;20290;-73
2021/10/28 09:54:16;;;;;;;57.60;29.43;;;;;;;10.73;100.00;101453.41;5045066;28;20462;-72
2021/10/28 09:59:33;;;;;;;35.67;21.53;;;;;;;10.92;100.00;101454.03;5034052;28;20201;-74
2021/10/28 10:02:10;;;;;;;32.33;19.40;;;;;;;11.07;99.75;101453.81;5034100;28;20723;-75
2021/10/28 10:04:37;;;;;;;28.93;17.60;;;;;;;11.21;97.34;101455.34;5041755;28;20306;-72
2021/10/28 10:07:04;;;;;;;23.23;14.67;;;;;;;11.26;96.77;101459.63;5038141;28;20203;-74
2021/10/28 10:09:34;;;;;;;23.07;14.40;;;;;;;11.35;97.50;101456.84;5045881;28;20882;-74
2021/10/28 10:12:02;;;;;;;17.33;11.67;;;;;;;11.47;94.16;101460.16;5038198;28;20222;-72
2021/10/28 10:14:28;;;;;;;17.60;11.13;;;;;;;11.59;92.60;101459.97;5036322;28;20565;-72
2021/10/28 10:16:56;;;;;;;13.83;10.63;;;;;;;11.65;93.17;101457.22;5032138;28;20657;-72
2021/10/28 10:19:30;;;;;;;16.10;11.57;;;;;;;11.72;91.53;101458.84;5043901;28;20281;-73
2021/10/28 10:21:59;;;;;;;14.43;9.77;;;;;;;11.80;91.26;101447.38;5035885;28;20229;-72
2021/10/28 10:24:43;;;;;;;12.47;9.07;;;;;;;11.88;91.90;101445.50;5038284;28;20204;-72
2021/10/28 10:27:51;;;;;;;12.73;9.33;;;;;;;11.96;92.78;101442.78;5028462;28;20205;-72
2021/10/28 11:33:11;;;;;;;11.40;9.00;;;;;;;13.27;80.67;101385.84;5018226;28;20226;-73
2021/10/28 12:16:01;;;;;;;9.20;5.53;;;;;;;14.17;73.22;101350.22;5034051;28;20312;-72
2021/10/28 12:24:15;;;;;;;6.93;5.33;;;;;;;14.28;71.24;101331.53;5031523;28;20965;-73
2021/10/28 12:44:13;;;;;;;4.60;3.53;;;;;;;14.54;69.06;101309.75;5034000;28;20616;-75
2021/10/28 12:47:01;;;;;;;4.90;3.67;;;;;;;14.54;70.48;101302.72;5043564;28;20211;-74
2021/10/28 12:52:35;;;;;;;3.77;3.37;;;;;;;14.62;66.38;101306.94;5041087;28;20250;-75
2021/10/28 13:06:37;;;;;;;5.27;2.90;;;;;;;14.69;64.91;101298.78;5038557;28;20215;-72
2021/10/28 13:50:31;;;;;;;2.10;1.83;;;;;;;14.56;54.00;101276.44;5032512;28;20212;-72
2021/10/28 13:56:06;;;;;;;3.60;1.70;;;;;;;14.50;54.38;101267.00;5072616;27;20687;-72
2021/10/28 14:21:07;;;;;;;2.13;1.67;;;;;;;14.10;54.39;101257.75;5018817;28;20705;-75
2021/10/28 14:23:43;;;;;;;2.43;1.53;;;;;;;14.04;53.88;101257.97;5025048;28;20199;-72
2021/10/28 15:02:37;;;;;;;4.87;3.53;;;;;;;13.01;56.51;101204.09;5020365;28;20248;-72
2021/10/28 15:29:53;;;;;;;3.63;2.30;;;;;;;12.25;59.91;101179.00;5022830;28;20301;-73
2021/10/28 15:32:56;;;;;;;3.53;2.40;;;;;;;12.17;60.05;101180.09;5001774;28;20238;-72
2021/10/28 15:35:36;;;;;;;3.53;2.43;;;;;;;12.02;61.55;101168.25;5005446;28;20762;-74
2021/10/28 15:38:09;;;;;;;3.30;2.50;;;;;;;11.90;61.38;101174.59;5002161;28;20214;-72
2021/10/28 15:41:00;;;;;;;6.40;3.10;;;;;;;11.83;61.93;101170.41;5007952;28;20252;-72
2021/10/28 15:43:48;;;;;;;5.97;3.20;;;;;;;11.69;62.68;101171.53;5001629;28;20257;-71
2021/10/28 15:57:38;;;;;;;3.77;2.80;;;;;;;11.33;63.97;101154.94;5003527;28;20218;-73
2021/10/28 16:00:27;;;;;;;3.80;3.13;;;;;;;11.37;64.38;101160.03;5003627;28;20217;-73
2021/10/28 16:22:06;;;;;;;10.80;6.87;;;;;;;10.18;70.34;101142.22;4999183;28;20225;-72
2021/10/28 16:24:35;;;;;;;21.97;12.10;;;;;;;10.03;70.52;101144.19;5004365;28;20204;-72
2021/10/28 16:27:03;;;;;;;15.67;8.20;;;;;;;9.97;71.17;101139.09;5010674;28;20211;-72
2021/10/28 16:29:30;;;;;;;32.50;15.23;;;;;;;9.86;71.39;101138.38;5005510;28;20611;-72
2021/10/28 16:31:57;;;;;;;103.80;49.87;;;;;;;9.74;71.81;101143.78;5010573;28;20233;-71
2021/10/28 16:34:24;;;;;;;29.77;17.20;;;;;;;9.64;72.63;101143.06;5004225;28;21101;-71
2021/10/28 16:36:51;;;;;;;21.40;11.80;;;;;;;9.55;73.21;101145.75;5018026;28;20204;-71
2021/10/28 16:39:18;;;;;;;27.57;16.03;;;;;;;9.44;73.41;101140.69;5002753;28;20192;-71
2021/10/28 16:41:48;;;;;;;12.83;6.80;;;;;;;9.27;74.79;101139.19;5002461;28;20279;-71
2021/10/28 16:44:15;;;;;;;10.20;6.03;;;;;;;9.15;75.21;101128.94;5002577;28;20302;-71
2021/10/28 16:46:43;;;;;;;8.10;5.13;;;;;;;9.04;75.63;101136.88;5000761;28;20220;-72
2021/10/28 16:49:11;;;;;;;11.20;5.97;;;;;;;8.91;77.13;101136.13;5004966;28;20849;-72
2021/10/28 16:51:38;;;;;;;9.27;6.40;;;;;;;8.78;77.20;101125.91;5009605;28;20221;-72
2021/10/28 16:54:05;;;;;;;8.10;4.90;;;;;;;8.67;77.80;101131.19;5000833;28;20218;-70
2021/10/28 16:56:32;;;;;;;7.70;5.17;;;;;;;8.57;78.51;101125.25;5009466;28;20202;-72
2021/10/28 16:59:00;;;;;;;7.67;5.27;;;;;;;8.47;79.44;101124.44;4998806;28;20206;-71
2021/10/28 17:01:27;;;;;;;8.70;5.33;;;;;;;8.42;79.78;101122.75;5006424;28;20702;-74
2021/10/28 17:03:54;;;;;;;5.77;5.10;;;;;;;8.48;80.45;101122.72;5000030;28;20216;-71
2021/10/28 17:06:21;;;;;;;8.60;5.13;;;;;;;8.51;81.07;101127.88;5006205;28;20212;-72
2021/10/28 17:08:48;;;;;;;7.43;5.50;;;;;;;8.59;81.27;101123.47;5003028;28;20205;-71
2021/10/28 17:11:15;;;;;;;9.50;5.60;;;;;;;8.64;80.74;101113.91;5003878;28;20220;-71
2021/10/28 17:13:42;;;;;;;7.70;5.27;;;;;;;8.64;81.20;101113.91;5000968;28;20243;-72
2021/10/28 17:16:10;;;;;;;9.87;5.63;;;;;;;8.68;80.79;101120.78;5005688;28;20569;-73
2021/10/28 17:18:36;;;;;;;6.50;5.53;;;;;;;8.66;81.02;101119.09;5003800;28;20202;-74
2021/10/28 17:21:05;;;;;;;8.73;5.43;;;;;;;8.66;81.65;101119.09;5008286;28;20805;-72
2021/10/28 17:23:34;;;;;;;7.47;5.70;;;;;;;8.67;81.64;101126.00;5007356;28;20244;-70
2021/10/28 17:26:03;;;;;;;9.03;5.60;;;;;;;8.68;81.66;101110.38;5004400;28;20597;-72
2021/10/28 17:28:29;;;;;;;7.73;5.97;;;;;;;8.67;81.69;101116.47;5002754;28;20205;-74
2021/10/28 17:30:56;;;;;;;7.50;5.83;;;;;;;8.70;81.71;101112.97;5003898;28;20209;-73
2021/10/28 17:33:24;;;;;;;15.07;7.37;;;;;;;8.73;81.96;101118.13;5003445;28;20198;-71
2021/10/28 17:35:51;;;;;;;10.00;7.00;;;;;;;8.74;81.88;101114.66;5000081;28;20257;-71
2021/10/28 17:38:17;;;;;;;11.03;8.20;;;;;;;8.88;81.92;101104.09;5005733;28;20570;-74
2021/10/28 17:40:44;;;;;;;10.60;7.20;;;;;;;8.84;81.77;101110.22;5002160;28;20210;-73
2021/10/28 17:43:12;;;;;;;10.33;6.80;;;;;;;8.79;81.90;101110.25;5002500;28;20205;-72
2021/10/28 17:45:40;;;;;;;10.23;7.47;;;;;;;8.73;82.83;101106.88;5000337;28;20196;-73
2021/10/28 17:48:07;;;;;;;14.00;9.20;;;;;;;8.74;83.19;101101.66;5006954;28;20207;-71
2021/10/28 17:50:36;;;;;;;13.37;9.07;;;;;;;8.76;83.74;101101.63;5001673;28;20724;-73
2021/10/28 17:53:03;;;;;;;18.87;12.23;;;;;;;8.70;84.06;101099.97;5007345;28;20701;-73
2021/10/28 17:55:29;;;;;;;16.27;11.70;;;;;;;8.70;84.39;101106.03;4996466;28;20227;-72
2021/10/28 17:57:56;;;;;;;16.07;10.57;;;;;;;8.77;84.70;101105.97;5005671;28;20205;-71
2021/10/28 18:00:24;;;;;;;12.23;8.63;;;;;;;8.86;84.54;101096.31;5001861;28;20208;-74
2021/10/28 18:02:51;;;;;;;11.63;8.37;;;;;;;8.88;84.77;101096.28;4996364;28;20232;-72
2021/10/28 18:05:18;;;;;;;11.90;8.90;;;;;;;9.00;84.25;101103.09;5002103;28;20218;-73
2021/10/28 18:07:46;;;;;;;13.23;8.20;;;;;;;8.95;84.67;101100.53;5001591;28;20568;-71
2021/10/28 18:10:13;;;;;;;11.10;9.10;;;;;;;8.93;84.61;101099.72;4999559;28;20210;-71
2021/10/28 18:12:39;;;;;;;13.17;8.93;;;;;;;8.91;85.06;101101.47;4999962;28;20229;-73
2021/10/28 18:15:08;;;;;;;11.77;8.77;;;;;;;8.83;85.09;101093.75;5002582;28;20242;-72
2021/10/28 18:17:35;;;;;;;13.53;8.17;;;;;;;8.82;85.28;101099.84;4996853;28;20566;-72
2021/10/28 18:20:03;;;;;;;13.17;9.30;;;;;;;8.76;85.92;101088.63;5001656;28;20218;-72
2021/10/28 18:22:35;;;;;;;12.83;8.93;;;;;;;8.68;85.94;101086.97;4997326;28;20754;-72
2021/10/28 18:25:04;;;;;;;13.00;8.73;;;;;;;8.58;86.93;101090.56;5002283;28;20527;-71
2021/10/28 18:27:32;;;;;;;11.70;9.03;;;;;;;8.52;87.22;101088.03;5000019;28;20220;-70
2021/10/28 18:29:59;;;;;;;12.63;8.63;;;;;;;8.46;87.62;101078.56;5003308;28;20205;-71
2021/10/28 18:32:26;;;;;;;12.20;8.57;;;;;;;8.42;87.76;101083.75;5002275;28;20229;-74
2021/10/28 18:34:53;;;;;;;14.60;9.60;;;;;;;8.42;88.24;101084.66;5000585;28;20224;-74
2021/10/28 18:37:20;;;;;;;10.43;8.27;;;;;;;8.42;88.59;101089.84;4997902;28;21032;-74
2021/10/28 18:39:49;;;;;;;11.70;8.57;;;;;;;8.40;88.87;101088.13;4996903;28;20215;-75
2021/10/28 18:42:17;;;;;;;12.60;9.33;;;;;;;8.38;88.97;101082.94;5002555;28;20266;-72
2021/10/28 18:44:43;;;;;;;11.37;8.43;;;;;;;8.36;89.44;101079.50;5014374;28;20616;-71
2021/10/28 18:47:10;;;;;;;12.03;9.03;;;;;;;8.35;89.46;101080.34;5005549;28;20212;-71
2021/10/28 18:49:36;;;;;;;12.13;9.40;;;;;;;8.31;89.62;101071.72;5004765;28;20240;-71